Time;durP1;ratioP1;P1;durP2;ratioP2;P2;SDS_P1;SDS_P2;PMS_P1;PMS_P2;Temp;Humidity;BMP_temperature;BMP_pressure;BME280_temperature;BME280_humidity;BME280_pressure;Samples;Min_cycle;Max_cycle;Signal;HPM_P1;HPM_P2
2023/05/03 00:00:25;;;;;;;1.00;0.50;;;16.30;94.20;;;;;;6125753;23;20002;-77
2023/05/03 00:02:52;;;;;;;0.70;0.57;;;16.30;94.30;;;;;;6126212;23;20046;-78
2023/05/03 00:05:19;;;;;;;1.48;0.77;;;16.30;94.30;;;;;;6126080;23;20073;-78
2023/05/03 00:07:45;;;;;;;0.90;0.82;;;16.30;94.20;;;;;;6100032;23;20388;-78
2023/05/03 00:10:12;;;;;;;1.00;0.60;;;16.30;94.20;;;;;;6125768;23;20006;-78
2023/05/03 00:12:39;;;;;;;0.50;0.50;;;16.30;94.20;;;;;;6099708;23;20435;-77
2023/05/03 00:15:06;;;;;;;1.02;0.88;;;16.30;94.20;;;;;;6126443;23;20037;-79
2023/05/03 00:17:32;;;;;;;0.65;0.65;;;16.30;94.10;;;;;;6126780;23;20104;-78
2023/05/03 00:19:58;;;;;;;1.13;0.70;;;16.30;94.20;;;;;;6126361;23;20006;-78
2023/05/03 00:22:24;;;;;;;1.45;0.70;;;16.30;94.30;;;;;;6126864;23;20436;-78
2023/05/03 00:24:50;;;;;;;1.65;0.90;;;16.30;94.50;;;;;;6126047;23;20005;-78
2023/05/03 00:27:16;;;;;;;1.63;0.80;;;16.20;94.60;;;;;;6126345;23;20006;-79
2023/05/03 00:29:42;;;;;;;1.00;0.70;;;16.20;94.40;;;;;;6125319;23;20010;-78
2023/05/03 00:32:09;;;;;;;0.88;0.73;;;16.20;94.50;;;;;;6126340;23;20013;-77
2023/05/03 00:34:36;;;;;;;1.17;0.73;;;16.20;94.50;;;;;;6126013;23;20090;-78
2023/05/03 00:37:01;;;;;;;1.05;0.70;;;16.20;94.50;;;;;;6126676;23;20409;-77
2023/05/03 00:39:30;;;;;;;1.55;0.80;;;16.20;94.50;;;;;;6125992;23;20070;-78
2023/05/03 00:42:00;;;;;;;1.17;0.70;;;16.20;94.60;;;;;;6125987;23;20028;-77
2023/05/03 00:44:26;;;;;;;2.08;0.95;;;16.10;94.60;;;;;;6125890;23;20002;-78
2023/05/03 00:46:54;;;;;;;1.02;0.60;;;16.10;94.70;;;;;;6100155;23;20017;-78
2023/05/03 00:49:20;;;;;;;1.75;0.75;;;16.10;94.80;;;;;;6126356;23;20010;-79
2023/05/03 00:51:47;;;;;;;0.93;0.63;;;16.10;94.80;;;;;;6126057;23;20440;-79
2023/05/03 00:54:12;;;;;;;2.13;0.98;;;16.10;94.70;;;;;;6124851;23;20424;-79
2023/05/03 00:56:39;;;;;;;1.33;0.85;;;16.10;94.70;;;;;;6099467;23;20060;-78
2023/05/03 00:59:05;;;;;;;1.02;0.60;;;16.10;94.70;;;;;;6126032;23;20002;-78
2023/05/03 01:01:31;;;;;;;1.25;0.80;;;16.10;94.70;;;;;;6100205;23;20029;-78
2023/05/03 01:04:01;;;;;;;0.88;0.60;;;16.10;94.70;;;;;;6126216;23;20005;-79
2023/05/03 01:06:57;;;;;;;1.30;0.75;;;16.00;94.70;;;;;;6126377;23;20007;-79
2023/05/03 01:09:46;;;;;;;2.70;1.08;;;16.00;94.70;;;;;;6125612;23;20001;-78
2023/05/03 01:12:27;;;;;;;1.52;0.80;;;16.10;94.70;;;;;;6125092;23;20002;-78
2023/05/03 01:15:01;;;;;;;1.77;1.13;;;16.00;94.70;;;;;;6126136;23;20401;-77
2023/05/03 01:17:37;;;;;;;0.85;0.77;;;16.00;94.80;;;;;;6125390;23;20089;-77
2023/05/03 01:20:10;;;;;;;1.65;0.77;;;15.90;94.70;;;;;;6125248;23;20006;-77
2023/05/03 01:22:57;;;;;;;2.10;0.80;;;15.90;94.70;;;;;;6125797;23;20429;-77
2023/05/03 01:25:23;;;;;;;1.40;0.80;;;15.90;94.80;;;;;;6124997;23;20006;-77
2023/05/03 01:27:49;;;;;;;1.33;0.90;;;15.90;94.80;;;;;;6125388;23;20429;-77
2023/05/03 01:30:15;;;;;;;0.88;0.80;;;15.90;94.80;;;;;;6124944;23;20118;-78
2023/05/03 01:33:08;;;;;;;1.20;0.75;;;15.90;94.80;;;;;;6125034;23;20006;-78
2023/05/03 01:35:43;;;;;;;0.82;0.60;;;15.90;94.80;;;;;;6125211;23;20072;-78
2023/05/03 01:38:10;;;;;;;1.60;0.90;;;15.90;94.80;;;;;;6123941;23;20089;-78
2023/05/03 01:40:42;;;;;;;1.23;0.55;;;15.80;95.00;;;;;;6125197;23;19998;-78
2023/05/03 01:43:11;;;;;;;0.88;0.80;;;15.80;94.80;;;;;;6126187;23;20009;-78
2023/05/03 01:45:36;;;;;;;0.75;0.68;;;15.80;94.80;;;;;;6125084;23;20002;-78
2023/05/03 01:48:08;;;;;;;2.53;0.88;;;15.70;94.80;;;;;;6125281;23;20460;-79
2023/05/03 01:50:33;;;;;;;1.15;0.80;;;15.70;94.80;;;;;;6124749;23;20038;-78
2023/05/03 01:52:59;;;;;;;1.05;0.70;;;15.70;94.80;;;;;;6125808;23;20009;-78
2023/05/03 01:55:24;;;;;;;1.42;0.82;;;15.70;94.90;;;;;;6124707;23;20001;-78
2023/05/03 01:57:52;;;;;;;1.08;0.60;;;15.70;94.90;;;;;;6126083;23;20006;-78
2023/05/03 02:00:17;;;;;;;0.80;0.60;;;15.70;94.90;;;;;;6124964;23;19998;-78
2023/05/03 02:02:43;;;;;;;1.23;0.60;;;15.70;94.90;;;;;;6125896;23;20053;-78
2023/05/03 02:05:10;;;;;;;0.65;0.65;;;15.70;94.90;;;;;;6124852;23;20005;-77
2023/05/03 02:07:35;;;;;;;0.73;0.60;;;15.80;94.80;;;;;;6125351;23;20001;-77
2023/05/03 02:10:01;;;;;;;3.42;0.80;;;15.70;94.70;;;;;;6124124;23;20013;-78
2023/05/03 02:12:27;;;;;;;0.75;0.70;;;15.80;94.80;;;;;;6124775;23;20013;-77
2023/05/03 02:14:53;;;;;;;0.88;0.60;;;15.80;94.90;;;;;;6125345;23;20017;-78
2023/05/03 02:17:19;;;;;;;1.20;0.70;;;15.80;94.70;;;;;;6125696;23;20002;-78
2023/05/03 02:19:45;;;;;;;0.80;0.70;;;15.80;94.60;;;;;;6125158;23;20006;-77
2023/05/03 02:22:11;;;;;;;0.60;0.60;;;15.80;94.50;;;;;;6099816;23;20002;-77
2023/05/03 02:24:36;;;;;;;1.05;0.70;;;15.80;94.50;;;;;;6123941;23;20491;-77
2023/05/03 02:27:05;;;;;;;0.70;0.60;;;15.80;94.60;;;;;;6125039;23;20013;-77
2023/05/03 02:29:31;;;;;;;1.25;0.70;;;15.80;94.70;;;;;;6125614;23;20085;-76
2023/05/03 02:31:57;;;;;;;0.95;0.60;;;15.80;94.70;;;;;;6099082;23;20100;-77
2023/05/03 02:34:23;;;;;;;1.63;0.60;;;15.80;94.60;;;;;;6124727;23;20031;-78
2023/05/03 02:36:48;;;;;;;1.60;0.90;;;15.80;94.60;;;;;;6125807;23;20006;-78
2023/05/03 02:39:14;;;;;;;0.75;0.70;;;15.80;94.40;;;;;;6125676;23;20336;-77
2023/05/03 02:41:40;;;;;;;0.80;0.70;;;15.70;94.50;;;;;;6126128;23;19998;-78
2023/05/03 02:44:05;;;;;;;0.93;0.77;;;15.70;94.60;;;;;;6125448;23;19998;-77
2023/05/03 02:46:31;;;;;;;0.93;0.70;;;15.60;94.60;;;;;;6124898;23;20006;-77
2023/05/03 02:48:57;;;;;;;1.08;0.85;;;15.60;94.70;;;;;;6125387;23;20030;-77
2023/05/03 02:51:23;;;;;;;0.70;0.70;;;15.70;94.80;;;;;;6125431;23;20005;-80
2023/05/03 02:53:48;;;;;;;0.70;0.70;;;15.70;94.60;;;;;;6125191;23;20012;-79
2023/05/03 02:56:14;;;;;;;1.02;0.82;;;15.60;94.60;;;;;;6125010;23;20080;-80
2023/05/03 02:58:40;;;;;;;1.33;0.88;;;15.60;94.60;;;;;;6125927;23;20002;-78
2023/05/03 03:01:06;;;;;;;1.02;0.55;;;15.60;94.70;;;;;;6125597;23;20005;-79
2023/05/03 03:03:31;;;;;;;0.82;0.60;;;15.60;94.70;;;;;;6125779;23;20029;-79
2023/05/03 03:05:57;;;;;;;1.50;0.85;;;15.60;94.70;;;;;;6125355;23;20005;-79
2023/05/03 03:08:23;;;;;;;1.10;0.90;;;15.60;94.70;;;;;;6125596;23;19998;-79
2023/05/03 03:10:49;;;;;;;1.15;0.90;;;15.60;94.60;;;;;;6126742;23;20448;-79
2023/05/03 03:13:14;;;;;;;1.02;0.65;;;15.60;94.70;;;;;;6127215;23;20310;-79
2023/05/03 03:15:40;;;;;;;0.65;0.50;;;15.60;94.70;;;;;;6126737;23;20004;-79
2023/05/03 03:18:06;;;;;;;0.90;0.80;;;15.60;94.60;;;;;;6127566;23;20002;-78
2023/05/03 03:20:31;;;;;;;1.10;0.90;;;15.60;94.60;;;;;;6126353;23;20052;-78
2023/05/03 03:22:57;;;;;;;1.02;0.70;;;15.60;94.70;;;;;;6126815;23;20310;-79
2023/05/03 03:25:23;;;;;;;1.23;0.88;;;15.70;94.80;;;;;;6125720;23;20024;-78
2023/05/03 03:27:49;;;;;;;1.25;0.80;;;15.70;94.80;;;;;;6126905;23;20009;-78
2023/05/03 03:30:15;;;;;;;0.75;0.75;;;15.70;94.70;;;;;;6099656;23;20096;-78
2023/05/03 03:32:40;;;;;;;1.23;0.90;;;15.70;94.90;;;;;;6127474;23;20433;-78
2023/05/03 03:35:08;;;;;;;1.42;0.70;;;15.70;94.60;;;;;;6116266;23;20389;-78
2023/05/03 03:37:34;;;;;;;1.25;0.90;;;15.70;94.60;;;;;;6126969;23;20092;-78
2023/05/03 03:40:00;;;;;;;0.90;0.68;;;15.70;94.60;;;;;;6126316;23;20409;-78
2023/05/03 03:42:25;;;;;;;1.35;1.00;;;15.70;94.60;;;;;;6126165;23;20087;-77
2023/05/03 03:44:51;;;;;;;1.45;0.80;;;15.70;94.70;;;;;;6124561;23;20009;-78
2023/05/03 03:47:17;;;;;;;2.03;0.98;;;15.70;94.70;;;;;;6127481;23;20009;-78
2023/05/03 03:49:43;;;;;;;1.35;0.88;;;15.80;94.70;;;;;;6125542;23;20016;-77
2023/05/03 03:52:08;;;;;;;0.60;0.60;;;15.80;94.70;;;;;;6124555;23;20017;-77
2023/05/03 03:54:34;;;;;;;1.13;0.75;;;15.80;94.60;;;;;;6126624;23;20306;-77
2023/05/03 03:57:03;;;;;;;0.60;0.60;;;15.80;94.70;;;;;;6126093;23;20061;-77
2023/05/03 03:59:29;;;;;;;1.30;0.77;;;15.80;94.60;;;;;;6127231;23;20004;-77
2023/05/03 04:01:55;;;;;;;0.63;0.52;;;15.80;94.60;;;;;;6125434;23;20002;-77
2023/05/03 04:04:20;;;;;;;3.80;0.70;;;15.80;94.50;;;;;;6125623;23;20006;-77
2023/05/03 04:06:46;;;;;;;1.02;0.57;;;15.80;94.40;;;;;;6101420;23;20010;-77
2023/05/03 04:09:13;;;;;;;0.80;0.50;;;15.80;94.40;;;;;;6127016;23;19997;-77
2023/05/03 04:11:39;;;;;;;0.57;0.55;;;15.70;94.40;;;;;;6126920;23;20042;-78
2023/05/03 04:14:05;;;;;;;0.93;0.70;;;15.80;94.50;;;;;;6127116;23;20006;-77
2023/05/03 04:16:30;;;;;;;0.88;0.77;;;15.80;94.50;;;;;;6126722;23;20060;-78
2023/05/03 04:18:59;;;;;;;0.95;0.70;;;15.80;94.60;;;;;;6126952;23;20073;-79
2023/05/03 04:21:26;;;;;;;1.20;0.73;;;15.80;94.60;;;;;;6124492;23;20006;-78
2023/05/03 04:23:52;;;;;;;1.02;0.50;;;15.80;94.90;;;;;;6126236;23;20329;-78
2023/05/03 04:26:24;;;;;;;1.98;0.90;;;15.80;94.60;;;;;;6125418;23;20002;-78
2023/05/03 04:28:50;;;;;;;0.60;0.60;;;15.80;94.60;;;;;;6127057;23;20006;-83
2023/05/03 04:31:18;;;;;;;0.93;0.82;;;15.80;94.60;;;;;;6125865;23;20085;-82
2023/05/03 04:33:45;;;;;;;1.40;0.75;;;15.80;94.40;;;;;;6126877;23;20409;-81
2023/05/03 04:36:14;;;;;;;1.10;0.68;;;15.80;94.50;;;;;;6125996;23;20008;-79
2023/05/03 04:38:42;;;;;;;1.63;0.65;;;15.80;94.40;;;;;;6126727;23;20009;-80
2023/05/03 04:41:08;;;;;;;2.55;0.70;;;15.80;94.50;;;;;;6124723;23;20006;-80
2023/05/03 04:43:34;;;;;;;0.55;0.50;;;15.80;94.50;;;;;;6125852;23;20008;-79
2023/05/03 04:46:02;;;;;;;0.95;0.68;;;15.80;94.60;;;;;;6125896;23;20002;-79
2023/05/03 04:48:28;;;;;;;1.42;0.80;;;15.90;94.40;;;;;;6126250;23;20012;-79
2023/05/03 04:50:53;;;;;;;3.95;0.75;;;15.90;94.60;;;;;;6125958;23;20073;-79
2023/05/03 04:53:19;;;;;;;1.20;0.77;;;15.90;94.40;;;;;;6126096;23;20097;-79
2023/05/03 04:55:46;;;;;;;0.80;0.77;;;15.90;94.40;;;;;;6121976;23;20009;-80
2023/05/03 04:58:15;;;;;;;2.00;0.93;;;15.90;94.30;;;;;;6124565;23;20032;-80
2023/05/03 05:00:42;;;;;;;0.63;0.63;;;15.90;94.50;;;;;;6126138;23;19998;-79
2023/05/03 05:03:08;;;;;;;0.70;0.60;;;15.90;94.30;;;;;;6126256;23;20222;-79
2023/05/03 05:05:33;;;;;;;1.15;0.90;;;15.90;94.10;;;;;;6125980;23;20077;-78
2023/05/03 05:07:59;;;;;;;2.40;0.60;;;15.90;94.10;;;;;;6126619;23;20009;-79
2023/05/03 05:10:25;;;;;;;1.08;0.60;;;15.90;94.20;;;;;;6126203;23;20006;-80
2023/05/03 05:12:51;;;;;;;0.43;0.43;;;15.90;94.10;;;;;;6123799;23;20006;-78
2023/05/03 05:15:17;;;;;;;5.43;0.90;;;15.90;94.30;;;;;;6124859;23;20002;-78
2023/05/03 05:17:42;;;;;;;0.50;0.50;;;15.90;94.00;;;;;;6126215;23;20031;-78
2023/05/03 05:20:11;;;;;;;1.08;0.60;;;15.90;93.90;;;;;;6126399;23;19998;-82
2023/05/03 05:22:38;;;;;;;0.90;0.70;;;15.90;93.90;;;;;;6126528;23;19998;-86
2023/05/03 05:25:05;;;;;;;1.00;0.90;;;15.90;94.00;;;;;;6124699;23;20342;-84
2023/05/03 05:27:39;;;;;;;0.82;0.60;;;16.00;94.10;;;;;;6126727;23;20009;-84
2023/05/03 05:30:05;;;;;;;1.02;0.70;;;16.00;94.00;;;;;;6125120;23;20097;-84
2023/05/03 05:32:31;;;;;;;0.70;0.52;;;16.00;94.00;;;;;;6126310;23;20176;-84
2023/05/03 05:34:56;;;;;;;1.48;0.82;;;16.00;94.00;;;;;;6126690;23;20093;-84
2023/05/03 05:37:23;;;;;;;1.23;1.00;;;16.00;93.80;;;;;;6125783;23;20006;-80
2023/05/03 05:39:49;;;;;;;2.17;0.88;;;16.10;93.90;;;;;;6126270;23;20013;-82
2023/05/03 05:42:15;;;;;;;0.68;0.68;;;16.10;93.90;;;;;;6126457;23;20022;-82
2023/05/03 05:44:41;;;;;;;1.88;0.80;;;16.10;93.90;;;;;;6100877;23;20002;-82
2023/05/03 05:47:09;;;;;;;1.30;1.13;;;16.10;94.10;;;;;;6125909;23;20053;-86
2023/05/03 05:49:35;;;;;;;1.00;0.80;;;16.20;94.10;;;;;;6124965;23;20109;-84
2023/05/03 05:52:01;;;;;;;2.33;1.20;;;16.20;94.10;;;;;;6100445;23;20034;-81
2023/05/03 05:54:27;;;;;;;1.25;0.80;;;16.20;93.90;;;;;;6125515;23;20314;-81
2023/05/03 05:56:53;;;;;;;1.75;0.70;;;16.20;93.90;;;;;;6126549;23;20362;-81
2023/05/03 05:59:19;;;;;;;1.17;0.60;;;16.20;93.80;;;;;;6127117;23;20349;-81
2023/05/03 06:01:45;;;;;;;0.77;0.70;;;16.20;93.90;;;;;;6126909;23;20002;-87
2023/05/03 06:04:14;;;;;;;1.42;0.90;;;16.30;93.90;;;;;;6101648;23;20002;-87
2023/05/03 06:06:41;;;;;;;1.52;0.90;;;16.30;93.70;;;;;;6126965;23;20005;-87
2023/05/03 06:09:07;;;;;;;1.13;0.75;;;16.30;93.70;;;;;;6126976;23;20298;-82
2023/05/03 06:11:34;;;;;;;1.27;0.80;;;16.30;93.60;;;;;;6126613;23;20010;-80
2023/05/03 06:14:02;;;;;;;2.15;0.80;;;16.30;93.50;;;;;;6126269;23;20081;-79
2023/05/03 06:16:28;;;;;;;1.45;0.90;;;16.30;93.50;;;;;;6126966;23;20012;-79
2023/05/03 06:18:53;;;;;;;1.40;1.00;;;16.40;93.60;;;;;;6126706;23;20394;-79
2023/05/03 06:21:20;;;;;;;1.00;0.90;;;16.40;93.70;;;;;;6126406;23;20069;-79
2023/05/03 06:23:46;;;;;;;1.30;0.68;;;16.40;93.70;;;;;;6126736;23;20005;-79
2023/05/03 06:26:12;;;;;;;5.85;0.90;;;16.50;93.70;;;;;;6126423;23;19994;-80
2023/05/03 06:28:37;;;;;;;1.25;0.70;;;16.50;93.70;;;;;;6126596;23;19998;-79
2023/05/03 06:31:03;;;;;;;1.38;0.90;;;16.50;93.60;;;;;;6100755;23;20462;-79
2023/05/03 06:33:28;;;;;;;2.83;1.10;;;16.50;93.70;;;;;;6125686;23;19998;-80
2023/05/03 06:35:55;;;;;;;1.00;0.90;;;16.50;93.60;;;;;;6126301;23;19998;-79
2023/05/03 06:38:21;;;;;;;1.73;0.80;;;16.60;93.60;;;;;;6125950;23;20006;-78
2023/05/03 06:40:47;;;;;;;1.67;1.10;;;16.60;93.50;;;;;;6125551;23;20004;-79
2023/05/03 06:43:13;;;;;;;1.23;0.93;;;16.60;93.50;;;;;;6125670;23;20005;-79
2023/05/03 06:45:42;;;;;;;1.50;0.88;;;16.60;93.60;;;;;;6127301;23;20412;-79
2023/05/03 06:48:08;;;;;;;1.27;1.00;;;16.60;93.50;;;;;;6128230;23;20002;-79
2023/05/03 06:50:34;;;;;;;1.40;0.82;;;16.60;93.50;;;;;;6128209;23;20029;-79
2023/05/03 06:53:00;;;;;;;1.27;0.82;;;16.60;93.60;;;;;;6128049;23;20006;-80
2023/05/03 06:55:26;;;;;;;4.78;1.75;;;16.70;93.70;;;;;;6102125;23;20041;-79
2023/05/03 06:57:52;;;;;;;15.18;2.17;;;16.70;93.80;;;;;;6127916;23;20060;-79
2023/05/03 07:00:19;;;;;;;14.60;2.42;;;16.70;93.80;;;;;;6127944;23;20021;-79
2023/05/03 07:02:45;;;;;;;15.93;2.63;;;16.70;93.90;;;;;;6101739;23;20384;-78
2023/05/03 07:05:11;;;;;;;9.73;1.95;;;16.70;94.10;;;;;;6127859;23;19998;-79
2023/05/03 07:07:37;;;;;;;6.28;1.95;;;16.80;94.00;;;;;;6128265;23;20002;-79
2023/05/03 07:10:03;;;;;;;4.15;1.48;;;16.80;94.10;;;;;;6127559;23;20018;-79
2023/05/03 07:12:29;;;;;;;4.35;1.63;;;16.90;94.10;;;;;;6128116;23;19994;-79
2023/05/03 07:14:54;;;;;;;5.00;1.70;;;16.90;94.20;;;;;;6102160;23;20013;-78
2023/05/03 07:17:20;;;;;;;2.50;1.40;;;16.90;94.20;;;;;;6128052;23;20010;-78
2023/05/03 07:19:47;;;;;;;3.28;1.10;;;17.00;94.10;;;;;;6121806;23;20012;-80
2023/05/03 07:22:13;;;;;;;2.25;1.10;;;17.00;94.00;;;;;;6122789;23;20049;-80
2023/05/03 07:24:39;;;;;;;2.15;1.23;;;17.00;93.90;;;;;;6127381;23;20002;-80
2023/05/03 07:27:05;;;;;;;1.67;1.13;;;17.10;93.80;;;;;;6126756;23;20009;-80
2023/05/03 07:29:31;;;;;;;6.55;1.10;;;17.20;93.70;;;;;;6127007;23;20057;-80
2023/05/03 07:31:57;;;;;;;1.48;0.90;;;17.30;93.40;;;;;;6125770;23;20118;-80
2023/05/03 07:34:23;;;;;;;0.80;0.60;;;17.30;93.10;;;;;;6099402;23;20340;-80
2023/05/03 07:36:49;;;;;;;1.55;1.00;;;17.30;92.60;;;;;;6125388;23;20010;-80
2023/05/03 07:39:16;;;;;;;1.05;0.68;;;17.30;92.30;;;;;;6127063;23;20006;-80
2023/05/03 07:41:41;;;;;;;0.98;0.65;;;17.40;92.20;;;;;;6100995;23;20332;-80
2023/05/03 07:44:07;;;;;;;3.65;1.05;;;17.40;91.90;;;;;;6094359;23;20030;-79
2023/05/03 07:46:33;;;;;;;1.05;0.70;;;17.40;91.60;;;;;;6100075;23;20094;-79
2023/05/03 07:49:01;;;;;;;2.45;0.60;;;17.50;91.50;;;;;;6126066;23;20349;-86
2023/05/03 07:51:27;;;;;;;1.77;0.73;;;17.50;91.30;;;;;;6128510;23;20006;-84
2023/05/03 07:53:55;;;;;;;0.75;0.50;;;17.60;91.40;;;;;;6126437;23;20006;-84
2023/05/03 07:56:21;;;;;;;0.68;0.60;;;17.60;91.50;;;;;;6101620;23;20488;-79
2023/05/03 07:58:47;;;;;;;1.05;0.73;;;17.80;91.60;;;;;;6101626;23;20464;-80
2023/05/03 08:01:13;;;;;;;1.08;0.80;;;17.80;91.60;;;;;;6127124;23;20005;-81
2023/05/03 08:03:39;;;;;;;0.60;0.60;;;17.90;91.30;;;;;;6126814;23;20448;-79
2023/05/03 08:06:05;;;;;;;2.25;0.82;;;17.90;90.90;;;;;;6126356;23;20006;-81
2023/05/03 08:08:32;;;;;;;0.73;0.57;;;17.90;90.50;;;;;;6127311;23;20073;-80
2023/05/03 08:10:58;;;;;;;1.40;0.43;;;17.90;90.40;;;;;;6101180;23;20476;-80
2023/05/03 08:13:26;;;;;;;1.30;0.68;;;18.00;90.30;;;;;;6127563;23;19998;-85
2023/05/03 08:15:52;;;;;;;0.60;0.60;;;18.00;90.40;;;;;;6101425;23;20080;-80
2023/05/03 08:18:18;;;;;;;1.52;0.80;;;18.00;90.40;;;;;;6127046;23;20030;-80
2023/05/03 08:20:44;;;;;;;2.05;0.90;;;18.10;90.10;;;;;;6127098;23;20298;-81
2023/05/03 08:23:10;;;;;;;1.23;0.50;;;18.10;90.10;;;;;;6127344;23;20073;-80
2023/05/03 08:25:36;;;;;;;1.25;0.80;;;18.20;90.10;;;;;;6124940;23;20002;-80
2023/05/03 08:28:02;;;;;;;1.00;0.60;;;18.20;90.40;;;;;;6127149;23;20021;-81
2023/05/03 08:30:29;;;;;;;0.80;0.50;;;18.20;90.20;;;;;;6128150;23;20329;-85
2023/05/03 08:32:55;;;;;;;0.82;0.65;;;18.20;90.10;;;;;;6128795;23;20056;-85
2023/05/03 08:35:20;;;;;;;0.85;0.50;;;18.30;90.00;;;;;;6127706;23;20026;-85
2023/05/03 08:37:46;;;;;;;2.20;0.55;;;18.30;90.00;;;;;;6126150;23;20078;-85
2023/05/03 08:40:14;;;;;;;0.50;0.50;;;18.40;90.00;;;;;;6101184;23;20009;-85
2023/05/03 08:42:44;;;;;;;1.42;0.50;;;18.50;89.50;;;;;;6100676;23;20006;-81
2023/05/03 08:45:13;;;;;;;0.80;0.68;;;18.50;89.00;;;;;;6125567;23;20002;-81
2023/05/03 08:47:40;;;;;;;1.20;0.50;;;18.50;88.80;;;;;;6127307;23;20006;-87
2023/05/03 08:50:07;;;;;;;1.15;0.55;;;18.50;88.80;;;;;;6101924;23;20009;-81
2023/05/03 08:52:34;;;;;;;2.67;0.65;;;18.50;88.80;;;;;;6126580;23;20010;-81
2023/05/03 08:55:00;;;;;;;0.85;0.45;;;18.50;88.20;;;;;;6127027;23;20009;-80
2023/05/03 08:57:26;;;;;;;1.67;0.73;;;18.60;88.20;;;;;;6101584;23;20018;-86
2023/05/03 08:59:56;;;;;;;0.95;0.60;;;18.60;88.30;;;;;;6128363;23;20009;-87
2023/05/03 09:02:21;;;;;;;0.50;0.40;;;18.60;88.50;;;;;;6127947;23;20076;-86
2023/05/03 09:04:47;;;;;;;0.85;0.47;;;18.70;87.80;;;;;;6127759;23;20302;-87
2023/05/03 09:07:14;;;;;;;0.80;0.50;;;18.70;87.60;;;;;;6126944;23;20086;-87
2023/05/03 09:09:40;;;;;;;1.20;0.70;;;18.70;87.20;;;;;;6126788;23;20471;-85
2023/05/03 09:12:06;;;;;;;0.55;0.50;;;18.80;86.70;;;;;;6127680;23;20002;-80
2023/05/03 09:14:42;;;;;;;1.50;0.90;;;18.80;86.50;;;;;;6127360;23;20476;-79
2023/05/03 09:17:15;;;;;;;1.65;0.63;;;18.90;86.90;;;;;;6127344;23;20001;-81
2023/05/03 09:19:57;;;;;;;2.38;0.60;;;19.00;87.00;;;;;;6128276;23;20329;-81
2023/05/03 09:22:26;;;;;;;0.30;0.30;;;19.00;86.90;;;;;;6122716;23;20447;-81
2023/05/03 09:24:56;;;;;;;0.95;0.70;;;19.00;86.30;;;;;;6123269;23;20005;-80
2023/05/03 09:27:23;;;;;;;1.43;0.60;;;19.00;86.00;;;;;;6122571;23;20722;-81
2023/05/03 09:29:49;;;;;;;0.68;0.47;;;19.00;85.70;;;;;;6123513;23;20017;-80
2023/05/03 09:32:16;;;;;;;0.80;0.50;;;19.10;85.10;;;;;;6125266;23;20029;-81
2023/05/03 09:34:42;;;;;;;1.05;0.77;;;19.00;85.00;;;;;;6120912;23;20029;-81
2023/05/03 09:37:08;;;;;;;0.82;0.68;;;19.10;84.90;;;;;;6099570;23;20009;-81
2023/05/03 09:39:35;;;;;;;0.82;0.55;;;19.10;84.20;;;;;;6125388;23;20009;-82
2023/05/03 09:42:15;;;;;;;2.67;1.25;;;19.10;84.10;;;;;;6126464;23;20081;-82
2023/05/03 09:44:47;;;;;;;6.03;0.50;;;19.10;84.00;;;;;;6125850;23;20488;-82
2023/05/03 09:47:13;;;;;;;0.70;0.43;;;19.10;84.00;;;;;;6099830;23;20033;-82
2023/05/03 09:49:40;;;;;;;2.47;0.40;;;19.20;84.30;;;;;;6125606;23;20006;-82
2023/05/03 09:52:07;;;;;;;0.55;0.50;;;19.20;84.20;;;;;;6125889;23;20002;-82
2023/05/03 09:54:34;;;;;;;0.82;0.68;;;19.30;84.00;;;;;;6125877;23;20049;-82
2023/05/03 09:57:01;;;;;;;0.75;0.60;;;19.30;83.70;;;;;;6099619;23;20041;-82
2023/05/03 09:59:28;;;;;;;1.50;0.70;;;19.40;83.20;;;;;;6125214;23;20036;-81
2023/05/03 10:02:27;;;;;;;0.40;0.40;;;19.50;82.90;;;;;;6103543;23;20029;-85
2023/05/03 10:04:57;;;;;;;1.48;0.55;;;19.50;83.20;;;;;;6106191;23;20010;-86
2023/05/03 10:07:36;;;;;;;1.80;0.50;;;19.60;83.30;;;;;;6105725;23;20348;-84
2023/05/03 10:10:03;;;;;;;0.45;0.40;;;19.70;83.00;;;;;;6108446;23;20005;-83
2023/05/03 10:12:33;;;;;;;0.68;0.35;;;19.70;81.80;;;;;;6109200;23;20018;-81
2023/05/03 10:15:06;;;;;;;0.50;0.30;;;19.70;82.00;;;;;;6109473;23;20017;-81
2023/05/03 10:17:37;;;;;;;0.30;0.30;;;19.70;81.80;;;;;;6110528;23;20014;-82
2023/05/03 10:20:31;;;;;;;0.40;0.30;;;19.80;81.70;;;;;;6106576;23;20006;-82
2023/05/03 10:23:04;;;;;;;1.58;0.40;;;19.80;81.60;;;;;;6105769;23;20006;-82
2023/05/03 10:25:35;;;;;;;1.70;0.30;;;19.80;81.10;;;;;;6106315;23;20002;-82
2023/05/03 10:28:03;;;;;;;1.52;0.35;;;19.80;80.90;;;;;;6106804;23;20013;-84
2023/05/03 10:30:39;;;;;;;0.52;0.30;;;19.80;80.80;;;;;;6106987;23;20013;-85
2023/05/03 10:33:33;;;;;;;1.17;0.40;;;19.80;81.00;;;;;;6133221;23;20017;-85
2023/05/03 10:36:05;;;;;;;0.30;0.28;;;19.80;80.10;;;;;;6115855;23;20027;-83
2023/05/03 10:38:31;;;;;;;0.32;0.28;;;19.80;80.60;;;;;;6133070;23;20025;-84
2023/05/03 10:40:58;;;;;;;0.32;0.13;;;19.80;81.00;;;;;;6105806;23;20002;-84
2023/05/03 10:43:34;;;;;;;1.67;0.20;;;19.80;80.40;;;;;;6104256;23;20002;-84
2023/05/03 10:46:03;;;;;;;0.52;0.40;;;19.80;80.50;;;;;;6131174;23;20009;-84
2023/05/03 10:48:31;;;;;;;1.77;0.30;;;19.80;79.50;;;;;;6134609;23;20336;-84
2023/05/03 10:51:31;;;;;;;1.58;0.30;;;19.80;80.10;;;;;;6139377;23;20022;-84
2023/05/03 10:54:00;;;;;;;0.20;0.20;;;19.80;80.40;;;;;;6140005;23;20013;-83
2023/05/03 10:56:26;;;;;;;0.30;0.30;;;19.90;80.30;;;;;;6110957;23;20026;-83
2023/05/03 10:58:57;;;;;;;0.30;0.30;;;19.90;80.30;;;;;;6136087;23;20497;-85
2023/05/03 11:01:25;;;;;;;0.30;0.30;;;19.90;79.30;;;;;;6109754;23;20006;-85
2023/05/03 11:04:09;;;;;;;0.73;0.30;;;20.00;79.90;;;;;;6106771;23;20034;-82
2023/05/03 11:06:37;;;;;;;0.35;0.30;;;20.00;80.10;;;;;;6108237;23;20064;-83
2023/05/03 11:09:15;;;;;;;0.43;0.40;;;20.10;80.20;;;;;;6106883;23;20561;-82
2023/05/03 11:11:42;;;;;;;1.48;0.30;;;20.10;80.40;;;;;;6107211;23;20006;-82
2023/05/03 11:14:09;;;;;;;2.45;0.20;;;20.10;79.10;;;;;;6107299;23;20005;-82
2023/05/03 11:16:49;;;;;;;0.45;0.20;;;20.10;78.40;;;;;;6107553;23;20017;-83
2023/05/03 11:19:16;;;;;;;0.20;0.20;;;20.10;77.90;;;;;;6110171;23;20027;-82
2023/05/03 11:21:46;;;;;;;0.98;0.60;;;20.10;77.80;;;;;;6135655;23;19998;-86
2023/05/03 11:24:12;;;;;;;;;;;20.10;77.90;;;;;;6109642;23;20002;-86
2023/05/03 11:26:39;;;;;;;0.38;0.20;;;20.10;77.50;;;;;;6110029;23;19952;-85
2023/05/03 11:29:05;;;;;;;1.38;0.60;;;20.20;77.40;;;;;;6109224;23;20005;-85
2023/05/03 11:31:31;;;;;;;0.40;0.30;;;20.20;77.20;;;;;;6109631;23;20013;-85
2023/05/03 11:33:58;;;;;;;0.30;0.30;;;20.20;77.20;;;;;;6083983;23;20449;-85
2023/05/03 11:36:29;;;;;;;0.20;0.20;;;20.20;76.90;;;;;;6105644;23;20026;-85
2023/05/03 11:38:56;;;;;;;0.65;0.30;;;20.20;77.50;;;;;;6103577;23;20007;-85
2023/05/03 11:41:23;;;;;;;1.25;0.30;;;20.20;77.80;;;;;;6103415;23;20334;-86
2023/05/03 11:43:49;;;;;;;0.40;0.40;;;20.20;77.70;;;;;;6103385;23;20007;-85
2023/05/03 11:46:21;;;;;;;0.28;0.25;;;20.30;78.00;;;;;;6107771;23;19998;-85
2023/05/03 11:48:47;;;;;;;0.38;0.30;;;20.30;77.40;;;;;;6106035;23;20037;-86
2023/05/03 11:51:14;;;;;;;1.08;0.32;;;20.30;77.50;;;;;;6107116;23;20006;-86
2023/05/03 11:53:44;;;;;;;0.20;0.20;;;20.30;77.60;;;;;;6107025;23;20085;-86
2023/05/03 11:56:17;;;;;;;0.60;0.45;;;20.30;76.90;;;;;;6107115;23;20006;-85
2023/05/03 11:59:03;;;;;;;0.30;0.30;;;20.30;76.50;;;;;;6107377;23;20370;-86
2023/05/03 12:01:33;;;;;;;0.75;0.30;;;20.30;76.00;;;;;;6106128;23;20007;-82
2023/05/03 12:04:03;;;;;;;0.82;0.32;;;20.30;75.90;;;;;;6103230;23;20471;-82
2023/05/03 12:06:58;;;;;;;;;;;20.30;76.20;;;;;;6101559;23;20369;-82
2023/05/03 12:09:25;;;;;;;0.20;0.20;;;20.30;76.70;;;;;;6113075;23;19924;-83
2023/05/03 12:12:01;;;;;;;2.17;0.30;;;20.30;75.70;;;;;;6075629;23;20006;-82
2023/05/03 12:14:28;;;;;;;2.30;0.20;;;20.30;76.30;;;;;;6099577;23;20013;-82
2023/05/03 12:16:57;;;;;;;0.77;0.30;;;20.30;75.90;;;;;;6102108;23;20006;-83
2023/05/03 12:19:24;;;;;;;0.70;0.30;;;20.30;76.20;;;;;;6103996;23;20002;-82
2023/05/03 12:21:51;;;;;;;0.20;0.20;;;20.30;76.50;;;;;;6102393;23;20003;-81
2023/05/03 12:24:18;;;;;;;0.65;0.20;;;20.30;76.60;;;;;;6103936;23;20013;-82
2023/05/03 12:26:48;;;;;;;0.30;0.20;;;20.30;75.80;;;;;;6103129;23;20010;-81
2023/05/03 12:29:15;;;;;;;;;;;20.20;75.60;;;;;;6106068;23;20034;-86
2023/05/03 12:31:48;;;;;;;0.75;0.40;;;20.20;75.90;;;;;;6108645;23;19908;-86
2023/05/03 12:34:14;;;;;;;0.75;0.32;;;20.20;76.70;;;;;;6105063;23;20082;-86
2023/05/03 12:36:40;;;;;;;0.55;0.30;;;20.20;76.80;;;;;;6106203;23;20006;-86
2023/05/03 12:39:10;;;;;;;1.98;0.43;;;20.20;76.90;;;;;;6104481;23;20666;-86
2023/05/03 12:41:36;;;;;;;1.40;0.60;;;20.30;76.90;;;;;;6106667;23;20009;-85
2023/05/03 12:44:02;;;;;;;0.20;0.20;;;20.30;77.40;;;;;;6106294;23;20010;-86
2023/05/03 12:46:35;;;;;;;0.32;0.30;;;20.40;77.10;;;;;;6107757;23;20006;-86
2023/05/03 12:49:02;;;;;;;2.33;0.38;;;20.50;77.00;;;;;;6105266;23;20003;-89
2023/05/03 12:51:28;;;;;;;1.25;0.45;;;20.50;75.50;;;;;;6102715;23;19998;-89